Time;durP1;ratioP1;P1;durP2;ratioP2;P2;SDS_P1;SDS_P2;PMS_P1;PMS_P2;Temp;Humidity;BMP_temperature;BMP_pressure;BME280_temperature;BME280_humidity;BME280_pressure;Samples;Min_cycle;Max_cycle;Signal;HPM_P1;HPM_P2
2022/01/07 00:02:01;;;;;;;10.60;2.60;;;3.10;99.90;;;;;;5009921;28;20478;-76
2022/01/07 00:04:28;;;;;;;11.20;2.80;;;3.10;99.90;;;;;;5026607;28;20029;-76
2022/01/07 00:06:54;;;;;;;9.50;2.60;;;3.00;99.90;;;;;;5008366;28;20073;-76
2022/01/07 00:09:19;;;;;;;9.80;2.60;;;3.10;99.90;;;;;;5027487;28;20026;-76
2022/01/07 00:11:45;;;;;;;12.30;2.33;;;3.10;99.90;;;;;;5027263;28;20033;-76
2022/01/07 00:14:11;;;;;;;11.80;2.78;;;3.10;99.90;;;;;;5009837;28;20045;-76
2022/01/07 00:16:37;;;;;;;12.50;2.90;;;3.10;99.90;;;;;;5027090;28;20022;-76
2022/01/07 00:19:03;;;;;;;10.13;2.67;;;3.10;99.90;;;;;;5025964;28;20037;-76
2022/01/07 00:21:28;;;;;;;8.43;2.55;;;3.10;99.90;;;;;;5027206;28;20032;-76
2022/01/07 00:23:54;;;;;;;8.15;2.22;;;3.10;99.90;;;;;;5025708;28;20029;-76
2022/01/07 00:26:20;;;;;;;9.05;2.63;;;3.10;99.90;;;;;;5027020;28;20021;-77
2022/01/07 00:28:45;;;;;;;9.55;2.55;;;3.10;99.90;;;;;;5026947;28;20096;-76
2022/01/07 00:31:11;;;;;;;10.38;2.65;;;3.00;99.90;;;;;;5027030;28;20022;-76
2022/01/07 00:33:38;;;;;;;11.13;2.50;;;3.10;99.90;;;;;;5026888;28;20056;-76
2022/01/07 00:36:06;;;;;;;12.55;2.75;;;3.10;99.90;;;;;;5026915;28;20061;-76
2022/01/07 00:38:32;;;;;;;10.40;2.63;;;3.10;99.90;;;;;;5026636;28;20037;-76
2022/01/07 00:40:58;;;;;;;7.60;2.17;;;3.00;99.90;;;;;;5025824;28;20030;-76
2022/01/07 00:43:24;;;;;;;7.82;2.17;;;3.10;99.90;;;;;;5009060;28;20040;-76
2022/01/07 00:45:50;;;;;;;9.73;3.00;;;3.10;99.90;;;;;;5026809;28;20026;-76
2022/01/07 00:48:15;;;;;;;9.00;2.55;;;3.10;99.90;;;;;;5026550;28;20026;-76
2022/01/07 00:50:41;;;;;;;8.63;3.13;;;3.10;99.90;;;;;;5025786;28;20030;-77
2022/01/07 00:53:07;;;;;;;9.27;2.42;;;3.10;99.90;;;;;;5027101;28;20057;-76
2022/01/07 00:55:53;;;;;;;8.77;2.67;;;3.00;99.90;;;;;;5026696;28;20018;-76
2022/01/07 00:58:18;;;;;;;12.25;3.38;;;3.00;99.90;;;;;;4946362;29;20091;-76
2022/01/07 01:00:44;;;;;;;10.30;3.05;;;3.00;99.90;;;;;;4946645;29;20035;-76
2022/01/07 01:03:09;;;;;;;8.90;2.90;;;3.00;99.90;;;;;;4946591;29;20532;-76
2022/01/07 01:05:36;;;;;;;11.23;3.42;;;2.90;99.90;;;;;;4947159;29;20094;-77
2022/01/07 01:08:02;;;;;;;12.00;3.40;;;2.90;99.90;;;;;;4946409;29;20036;-76
2022/01/07 01:10:28;;;;;;;17.77;5.15;;;2.80;99.90;;;;;;4946637;29;20578;-76
2022/01/07 01:12:55;;;;;;;10.73;3.45;;;2.80;99.90;;;;;;4930116;29;20050;-76
2022/01/07 01:15:23;;;;;;;11.05;4.00;;;2.80;99.90;;;;;;4944003;29;20039;-76
2022/01/07 01:17:51;;;;;;;16.10;3.50;;;2.70;99.90;;;;;;4946129;29;20172;-76
2022/01/07 01:20:17;;;;;;;11.75;4.25;;;2.70;99.90;;;;;;4946554;29;20058;-76
2022/01/07 01:22:44;;;;;;;9.65;3.80;;;2.70;99.90;;;;;;4946136;29;20095;-76
2022/01/07 01:25:10;;;;;;;15.40;4.63;;;2.60;99.90;;;;;;4945988;29;20100;-77
2022/01/07 01:27:36;;;;;;;12.55;3.38;;;2.70;99.90;;;;;;4945890;29;20424;-76
2022/01/07 01:30:05;;;;;;;9.85;4.13;;;2.60;99.90;;;;;;4946027;29;20054;-76
2022/01/07 01:32:31;;;;;;;10.43;3.55;;;2.60;99.90;;;;;;4946048;29;20046;-76
2022/01/07 01:34:56;;;;;;;13.05;3.67;;;2.50;99.90;;;;;;4965421;28;20137;-76
2022/01/07 01:37:22;;;;;;;11.45;4.18;;;2.50;99.90;;;;;;5006205;28;20034;-76
2022/01/07 01:39:48;;;;;;;14.73;5.03;;;2.40;99.90;;;;;;5006066;28;20053;-78
2022/01/07 01:42:13;;;;;;;13.82;4.40;;;2.40;99.90;;;;;;5006209;28;20273;-76
2022/01/07 01:44:39;;;;;;;8.10;3.30;;;2.40;99.90;;;;;;5006160;28;20026;-76
2022/01/07 01:47:05;;;;;;;8.48;3.40;;;2.40;99.90;;;;;;5005997;28;20096;-76
2022/01/07 01:49:31;;;;;;;10.60;3.20;;;2.40;99.90;;;;;;5006002;28;20022;-76
2022/01/07 01:51:56;;;;;;;10.70;3.75;;;2.40;99.90;;;;;;5005934;28;20034;-76
2022/01/07 01:54:22;;;;;;;11.82;3.35;;;2.40;99.90;;;;;;5005768;28;20035;-76
2022/01/07 01:56:47;;;;;;;7.80;3.38;;;2.40;99.90;;;;;;5009626;28;20434;-76
2022/01/07 01:59:13;;;;;;;8.63;3.47;;;2.40;99.90;;;;;;5025355;28;20083;-76
2022/01/07 02:01:40;;;;;;;13.50;3.70;;;2.40;99.90;;;;;;5025201;28;20473;-76
2022/01/07 02:04:07;;;;;;;12.55;3.72;;;2.40;99.90;;;;;;5025373;28;20025;-76
2022/01/07 02:06:34;;;;;;;8.45;2.92;;;2.40;99.90;;;;;;5023396;28;20105;-76
2022/01/07 02:08:59;;;;;;;9.27;3.38;;;2.40;99.90;;;;;;5025177;28;20034;-76
2022/01/07 02:11:25;;;;;;;7.10;2.65;;;2.40;99.90;;;;;;5025186;28;20033;-76
2022/01/07 02:13:55;;;;;;;10.82;3.25;;;2.40;99.90;;;;;;5007146;28;20037;-75
2022/01/07 02:16:27;;;;;;;9.20;3.97;;;2.40;99.90;;;;;;5025299;28;20379;-76
2022/01/07 02:18:53;;;;;;;7.32;2.67;;;2.40;99.90;;;;;;5004497;28;20045;-76
2022/01/07 02:21:19;;;;;;;8.60;2.70;;;2.40;99.90;;;;;;5025140;28;20075;-76
2022/01/07 02:23:45;;;;;;;7.13;2.60;;;2.40;99.90;;;;;;5025094;28;20041;-76
2022/01/07 02:26:12;;;;;;;14.15;3.90;;;2.40;99.90;;;;;;5024852;28;20026;-76
2022/01/07 02:28:40;;;;;;;9.90;3.20;;;2.40;99.90;;;;;;5025018;28;20064;-76
2022/01/07 02:31:06;;;;;;;11.32;3.03;;;2.40;99.90;;;;;;5025058;28;20022;-76
2022/01/07 02:33:31;;;;;;;9.38;3.25;;;2.40;99.90;;;;;;5025083;28;20535;-76
2022/01/07 02:35:57;;;;;;;7.60;2.90;;;2.40;99.90;;;;;;5025002;28;20029;-76
2022/01/07 02:38:23;;;;;;;8.02;3.17;;;2.40;99.90;;;;;;5024965;28;20094;-76
2022/01/07 02:40:49;;;;;;;12.18;4.47;;;2.40;99.90;;;;;;5024873;28;20026;-76
2022/01/07 02:43:14;;;;;;;9.88;2.90;;;2.40;99.90;;;;;;5024972;28;20034;-76
2022/01/07 02:45:40;;;;;;;14.05;3.67;;;2.50;99.90;;;;;;5024906;28;20448;-76
2022/01/07 02:48:06;;;;;;;7.93;3.28;;;2.50;99.90;;;;;;5024750;28;20045;-76
2022/01/07 02:50:37;;;;;;;10.55;3.22;;;2.50;99.90;;;;;;5024908;28;20470;-75
2022/01/07 02:53:07;;;;;;;11.70;4.32;;;2.50;99.90;;;;;;5024765;28;20096;-76
2022/01/07 02:55:53;;;;;;;11.07;2.97;;;2.50;99.90;;;;;;5024850;28;20022;-75
2022/01/07 02:58:18;;;;;;;10.18;2.90;;;2.50;99.90;;;;;;4944414;29;20043;-76
2022/01/07 03:00:44;;;;;;;9.65;3.00;;;2.50;99.90;;;;;;4944655;29;20075;-76
2022/01/07 03:03:10;;;;;;;10.43;3.22;;;2.50;99.90;;;;;;4944877;29;20035;-76
2022/01/07 03:05:39;;;;;;;13.45;2.83;;;2.50;99.90;;;;;;4945318;29;20032;-76
2022/01/07 03:08:04;;;;;;;9.52;2.72;;;2.60;99.90;;;;;;4944829;29;20046;-76
2022/01/07 03:10:30;;;;;;;8.15;2.47;;;2.60;99.90;;;;;;4944804;29;20059;-76
2022/01/07 03:13:00;;;;;;;10.43;1.95;;;2.50;99.90;;;;;;4944385;29;20095;-76
2022/01/07 03:15:27;;;;;;;8.73;2.47;;;2.60;99.90;;;;;;4947563;29;20032;-76
2022/01/07 03:17:53;;;;;;;8.13;2.47;;;2.60;99.90;;;;;;4948298;29;20031;-76
2022/01/07 03:20:20;;;;;;;10.43;2.60;;;2.60;99.90;;;;;;4948459;29;20106;-76
2022/01/07 03:22:47;;;;;;;7.85;1.85;;;2.60;99.90;;;;;;4948188;29;20049;-76
2022/01/07 03:25:14;;;;;;;7.10;2.25;;;2.60;99.90;;;;;;4945763;29;20031;-76
2022/01/07 03:27:40;;;;;;;10.10;2.28;;;2.60;99.90;;;;;;4947872;29;20028;-76
2022/01/07 03:30:08;;;;;;;7.97;1.75;;;2.60;99.90;;;;;;4948067;29;20058;-76
2022/01/07 03:32:34;;;;;;;6.13;2.50;;;2.50;99.90;;;;;;4948136;29;20070;-75
2022/01/07 03:35:00;;;;;;;6.95;2.00;;;2.50;99.90;;;;;;4968483;28;20081;-76
2022/01/07 03:37:26;;;;;;;9.65;2.72;;;2.50;99.90;;;;;;5007195;28;20041;-76
2022/01/07 03:39:52;;;;;;;5.82;2.30;;;2.50;99.90;;;;;;5008530;28;20030;-76
2022/01/07 03:42:18;;;;;;;8.55;2.83;;;2.50;99.90;;;;;;5008140;28;20026;-76
2022/01/07 03:44:44;;;;;;;8.45;2.67;;;2.50;99.90;;;;;;5008415;28;20033;-76
2022/01/07 03:47:09;;;;;;;8.02;1.85;;;2.50;99.90;;;;;;5008140;28;20114;-76
2022/01/07 03:49:35;;;;;;;5.13;1.63;;;2.50;99.90;;;;;;5008269;28;20027;-77
2022/01/07 03:52:00;;;;;;;7.43;2.20;;;2.50;99.90;;;;;;5006754;28;20054;-76
2022/01/07 03:54:26;;;;;;;7.40;2.85;;;2.50;99.90;;;;;;5008112;28;20034;-76
2022/01/07 03:56:52;;;;;;;7.53;3.00;;;2.50;99.90;;;;;;5012317;28;20052;-76
2022/01/07 03:59:17;;;;;;;5.57;2.22;;;2.50;99.90;;;;;;5027688;28;20026;-76
2022/01/07 04:01:43;;;;;;;5.18;2.78;;;2.50;99.90;;;;;;5027500;28;20076;-76
2022/01/07 04:04:08;;;;;;;6.50;2.58;;;2.50;99.90;;;;;;5027580;28;20022;-76
2022/01/07 04:06:34;;;;;;;4.53;1.98;;;2.40;99.90;;;;;;5025592;28;20558;-76
2022/01/07 04:09:00;;;;;;;6.53;2.20;;;2.40;99.90;;;;;;5027382;28;20030;-76
2022/01/07 04:11:25;;;;;;;8.93;2.75;;;2.40;99.90;;;;;;5027411;28;20225;-76
2022/01/07 04:13:51;;;;;;;8.82;2.55;;;2.40;99.90;;;;;;5027154;28;20092;-76
2022/01/07 04:16:17;;;;;;;8.38;2.00;;;2.40;99.90;;;;;;5027299;28;20084;-76
2022/01/07 04:18:43;;;;;;;8.57;2.40;;;2.40;99.90;;;;;;5027238;28;20034;-76
2022/01/07 04:21:09;;;;;;;8.00;1.63;;;2.40;99.90;;;;;;5025838;28;20030;-76
2022/01/07 04:23:35;;;;;;;9.00;1.98;;;2.40;99.90;;;;;;5027166;28;20033;-76
2022/01/07 04:26:00;;;;;;;6.57;1.20;;;2.40;99.90;;;;;;5026605;28;20029;-76
2022/01/07 04:28:26;;;;;;;8.15;1.75;;;2.50;99.90;;;;;;5026930;28;20025;-75
2022/01/07 04:30:51;;;;;;;4.22;1.38;;;2.40;99.90;;;;;;5027108;28;20018;-76
2022/01/07 04:33:25;;;;;;;3.45;1.00;;;2.40;99.90;;;;;;5026928;28;20038;-76
2022/01/07 04:35:52;;;;;;;4.70;1.40;;;2.40;99.90;;;;;;5009434;28;20052;-76
2022/01/07 04:38:17;;;;;;;6.47;2.15;;;2.30;99.90;;;;;;5026832;28;20105;-76
2022/01/07 04:40:43;;;;;;;5.88;2.00;;;2.30;99.90;;;;;;5027059;28;20458;-76
2022/01/07 04:43:09;;;;;;;3.75;1.00;;;2.30;99.90;;;;;;5026669;28;20052;-76
2022/01/07 04:45:35;;;;;;;4.05;1.13;;;2.30;99.90;;;;;;5026948;28;20569;-76
2022/01/07 04:48:01;;;;;;;5.80;1.73;;;2.30;99.90;;;;;;5026705;28;20029;-76
2022/01/07 04:50:27;;;;;;;5.50;2.15;;;2.30;99.90;;;;;;5026763;28;20029;-75
2022/01/07 04:52:53;;;;;;;4.15;1.38;;;2.20;99.90;;;;;;5026779;28;20060;-76
2022/01/07 04:55:35;;;;;;;7.00;2.20;;;2.20;99.90;;;;;;5026761;28;20033;-76
2022/01/07 04:58:01;;;;;;;7.13;1.85;;;2.20;99.90;;;;;;5019627;28;20046;-75
2022/01/07 05:00:27;;;;;;;7.07;1.98;;;2.10;99.90;;;;;;5023129;28;20049;-76
2022/01/07 05:02:52;;;;;;;6.47;2.05;;;2.20;99.90;;;;;;5023514;28;20021;-76
2022/01/07 05:05:18;;;;;;;5.63;1.95;;;2.10;99.90;;;;;;5026347;28;20047;-76
2022/01/07 05:07:43;;;;;;;4.93;1.92;;;2.10;99.90;;;;;;5023440;28;20038;-75
2022/01/07 05:10:11;;;;;;;3.83;1.10;;;2.20;99.90;;;;;;5023216;28;20064;-76
2022/01/07 05:12:38;;;;;;;4.50;1.52;;;2.20;99.90;;;;;;5026243;28;20018;-76
2022/01/07 05:15:05;;;;;;;5.60;2.15;;;2.20;99.90;;;;;;5026310;28;20045;-76
2022/01/07 05:17:31;;;;;;;5.25;2.17;;;2.30;99.90;;;;;;5008775;28;20049;-76
2022/01/07 05:19:57;;;;;;;4.78;2.92;;;2.30;99.90;;;;;;5026354;28;20389;-76
2022/01/07 05:22:22;;;;;;;12.25;4.00;;;2.30;99.90;;;;;;5026190;28;20046;-76
2022/01/07 05:24:48;;;;;;;7.10;3.05;;;2.30;99.90;;;;;;5026202;28;20076;-76
2022/01/07 05:27:14;;;;;;;5.25;2.33;;;2.40;99.90;;;;;;5025804;28;20575;-76
2022/01/07 05:29:39;;;;;;;6.97;3.17;;;2.40;99.90;;;;;;5026112;28;20048;-76
2022/01/07 05:32:06;;;;;;;5.88;2.65;;;2.50;99.90;;;;;;5026143;28;20036;-76
2022/01/07 05:34:31;;;;;;;8.88;3.20;;;2.50;99.90;;;;;;5008471;28;20461;-75
2022/01/07 05:36:57;;;;;;;5.43;2.15;;;2.50;99.90;;;;;;5025248;28;20021;-76
2022/01/07 05:39:24;;;;;;;9.23;2.78;;;2.50;99.90;;;;;;5026062;28;20026;-76
2022/01/07 05:41:49;;;;;;;5.30;2.80;;;2.60;99.90;;;;;;5025776;28;20037;-76
2022/01/07 05:44:15;;;;;;;6.85;2.63;;;2.60;99.90;;;;;;5025739;28;20033;-75
2022/01/07 05:46:40;;;;;;;4.93;2.03;;;2.70;99.90;;;;;;5025819;28;20029;-75
2022/01/07 05:49:06;;;;;;;6.13;1.98;;;2.70;99.90;;;;;;5024574;28;20116;-76
2022/01/07 05:51:32;;;;;;;4.05;2.20;;;2.70;99.90;;;;;;5025712;28;20025;-76
2022/01/07 05:53:58;;;;;;;3.50;1.77;;;2.70;99.90;;;;;;5025662;28;20489;-76
2022/01/07 05:56:23;;;;;;;7.50;2.15;;;2.70;99.90;;;;;;5025193;28;20101;-76
2022/01/07 05:58:50;;;;;;;3.10;1.58;;;2.80;99.90;;;;;;5025557;28;20034;-76
2022/01/07 06:01:15;;;;;;;4.55;1.73;;;2.80;99.90;;;;;;5025392;28;20022;-76
2022/01/07 06:03:41;;;;;;;5.40;2.08;;;2.80;99.90;;;;;;5025471;28;20381;-75
2022/01/07 06:06:08;;;;;;;3.55;2.30;;;2.80;99.90;;;;;;5023896;28;20022;-76
2022/01/07 06:08:34;;;;;;;4.07;1.42;;;2.80;99.90;;;;;;5025228;28;20033;-76
2022/01/07 06:10:59;;;;;;;3.17;2.40;;;2.90;99.90;;;;;;5025479;28;20090;-76
2022/01/07 06:13:25;;;;;;;3.88;1.85;;;2.90;99.90;;;;;;5025253;28;20037;-77
2022/01/07 06:15:51;;;;;;;3.60;1.58;;;2.90;99.90;;;;;;5024083;28;20028;-76
2022/01/07 06:18:17;;;;;;;5.38;2.10;;;2.90;99.90;;;;;;5007363;28;20477;-76
2022/01/07 06:20:43;;;;;;;4.15;2.40;;;2.90;99.90;;;;;;5025301;28;20026;-76
2022/01/07 06:23:08;;;;;;;4.35;2.08;;;3.00;99.90;;;;;;5025112;28;20041;-76
2022/01/07 06:25:34;;;;;;;6.18;2.08;;;3.00;99.90;;;;;;5025092;28;20033;-76
2022/01/07 06:28:00;;;;;;;7.38;3.47;;;2.90;99.90;;;;;;5024836;28;20035;-76
2022/01/07 06:30:25;;;;;;;7.15;3.15;;;3.00;99.90;;;;;;5025026;28;20030;-76
2022/01/07 06:32:51;;;;;;;6.57;3.22;;;3.00;99.90;;;;;;5025114;28;20034;-76
2022/01/07 06:35:17;;;;;;;9.05;3.10;;;3.00;99.90;;;;;;5025038;28;20050;-76
2022/01/07 06:37:43;;;;;;;9.70;2.85;;;3.00;99.90;;;;;;5024803;28;20018;-77
2022/01/07 06:40:09;;;;;;;11.85;4.43;;;3.10;99.90;;;;;;5025138;28;20478;-76
2022/01/07 06:42:34;;;;;;;4.85;3.35;;;3.10;99.90;;;;;;5022376;28;20034;-76
2022/01/07 06:45:00;;;;;;;7.15;4.53;;;3.10;99.90;;;;;;5021266;28;20040;-76
2022/01/07 06:47:26;;;;;;;8.75;4.18;;;3.10;99.90;;;;;;5024582;28;20014;-76
2022/01/07 06:49:51;;;;;;;5.97;4.15;;;3.20;99.90;;;;;;5028562;28;20429;-78
2022/01/07 06:52:17;;;;;;;5.45;3.88;;;3.10;99.90;;;;;;5028831;28;20048;-76
2022/01/07 06:54:43;;;;;;;7.63;4.60;;;3.20;99.90;;;;;;5028776;28;20026;-76
2022/01/07 06:57:08;;;;;;;7.93;3.78;;;3.20;99.90;;;;;;5028127;28;20046;-76
2022/01/07 06:59:34;;;;;;;6.90;4.20;;;3.20;99.90;;;;;;5028697;28;20096;-76
2022/01/07 07:02:00;;;;;;;6.40;3.97;;;3.20;99.90;;;;;;5028235;28;20050;-77
2022/01/07 07:04:25;;;;;;;5.75;3.85;;;3.30;99.90;;;;;;5026641;28;20548;-76
2022/01/07 07:06:51;;;;;;;7.07;3.63;;;3.30;99.90;;;;;;5025409;28;20025;-78
2022/01/07 07:09:18;;;;;;;7.20;4.47;;;3.30;99.90;;;;;;5025758;28;20018;-82
2022/01/07 07:11:43;;;;;;;8.40;4.13;;;3.30;99.90;;;;;;5010985;28;20034;-80
2022/01/07 07:14:10;;;;;;;8.70;3.80;;;3.30;99.90;;;;;;5028315;28;20045;-78
2022/01/07 07:16:36;;;;;;;6.32;3.97;;;3.30;99.90;;;;;;5010881;28;20080;-82
2022/01/07 07:19:03;;;;;;;8.02;3.67;;;3.40;99.90;;;;;;5028358;28;20029;-80
2022/01/07 07:21:28;;;;;;;8.65;5.05;;;3.40;99.90;;;;;;5010808;28;20030;-79
2022/01/07 07:23:54;;;;;;;8.77;5.00;;;3.40;99.90;;;;;;5028302;28;20140;-81
2022/01/07 07:26:20;;;;;;;9.48;5.25;;;3.50;99.90;;;;;;5028234;28;20065;-78
2022/01/07 07:28:47;;;;;;;7.53;4.03;;;3.50;99.90;;;;;;5007590;28;20050;-76
2022/01/07 07:31:16;;;;;;;5.38;4.22;;;3.50;99.90;;;;;;5028298;28;20030;-82
2022/01/07 07:39:01;;;;;;;8.95;5.10;;;3.50;99.90;;;;;;5027933;28;20114;-82
2022/01/07 07:41:28;;;;;;;8.98;5.60;;;3.50;99.90;;;;;;5028117;28;20037;-78
2022/01/07 07:43:56;;;;;;;9.65;5.60;;;3.60;99.90;;;;;;5027626;28;20061;-81
2022/01/07 07:46:22;;;;;;;16.23;6.13;;;3.60;99.90;;;;;;5027978;28;20022;-79
2022/01/07 07:48:48;;;;;;;8.98;5.80;;;3.60;99.90;;;;;;5027732;28;20029;-80
2022/01/07 07:51:15;;;;;;;13.02;6.57;;;3.70;99.90;;;;;;5025134;28;20092;-78
2022/01/07 07:53:41;;;;;;;13.25;5.53;;;3.70;99.90;;;;;;5027587;28;20144;-79
2022/01/07 07:56:08;;;;;;;9.32;5.85;;;3.70;99.90;;;;;;5027724;28;20501;-82
2022/01/07 07:58:34;;;;;;;8.60;6.03;;;3.70;99.90;;;;;;5027174;28;20065;-78
2022/01/07 08:01:00;;;;;;;7.53;4.68;;;3.70;99.90;;;;;;4993129;28;20030;-80
2022/01/07 08:03:26;;;;;;;6.53;4.53;;;3.80;99.90;;;;;;5027530;28;20053;-79
2022/01/07 08:05:52;;;;;;;9.27;5.75;;;3.70;99.90;;;;;;5009875;28;20022;-78
2022/01/07 08:08:17;;;;;;;8.80;5.95;;;3.80;99.90;;;;;;5027431;28;20460;-79
2022/01/07 08:10:49;;;;;;;12.35;6.22;;;3.80;99.90;;;;;;5009794;28;20032;-77
2022/01/07 08:15:59;;;;;;;12.85;5.88;;;3.80;99.90;;;;;;5026125;28;20386;-80
2022/01/07 08:18:32;;;;;;;11.88;6.50;;;3.90;99.90;;;;;;5020010;28;20045;-77
2022/01/07 08:21:02;;;;;;;9.57;7.60;;;3.90;99.90;;;;;;5014829;28;20034;-81
2022/01/07 08:23:29;;;;;;;10.10;7.15;;;3.90;99.90;;;;;;5007635;28;20093;-77
2022/01/07 08:25:54;;;;;;;12.77;6.20;;;4.00;99.90;;;;;;5023770;28;20045;-78
2022/01/07 08:28:24;;;;;;;9.00;5.65;;;3.90;99.90;;;;;;5025060;28;20026;-79
2022/01/07 08:36:18;;;;;;;9.38;6.53;;;4.00;99.90;;;;;;5024075;28;20022;-79
2022/01/07 08:38:44;;;;;;;10.27;6.18;;;4.00;99.90;;;;;;5025351;28;20105;-78
2022/01/07 08:41:10;;;;;;;10.57;6.38;;;4.00;99.90;;;;;;5024782;28;20454;-80
2022/01/07 08:43:36;;;;;;;11.48;7.05;;;4.00;99.90;;;;;;5025102;28;20113;-77
2022/01/07 08:46:02;;;;;;;12.45;7.78;;;4.00;99.90;;;;;;5025133;28;20041;-79
2022/01/07 08:48:29;;;;;;;8.85;6.57;;;4.10;99.90;;;;;;5024989;28;20034;-82
2022/01/07 08:50:54;;;;;;;8.55;6.70;;;4.10;99.90;;;;;;5025238;28;20021;-80
2022/01/07 08:53:20;;;;;;;9.20;5.75;;;4.10;99.90;;;;;;5025173;28;20470;-78
2022/01/07 08:56:07;;;;;;;7.28;4.97;;;4.20;99.90;;;;;;5023999;28;20053;-78
2022/01/07 08:58:33;;;;;;;10.23;6.63;;;4.20;99.90;;;;;;4948219;29;20098;-78
2022/01/07 09:00:59;;;;;;;13.32;7.65;;;4.20;99.90;;;;;;4952610;29;20139;-80
2022/01/07 09:03:25;;;;;;;10.30;7.32;;;4.20;99.90;;;;;;4949912;29;20039;-78
2022/01/07 09:05:51;;;;;;;11.52;6.90;;;4.20;99.90;;;;;;4951836;29;20032;-80
2022/01/07 09:08:16;;;;;;;13.13;8.00;;;4.30;99.90;;;;;;4949752;29;20039;-83
2022/01/07 09:10:43;;;;;;;10.75;6.68;;;4.30;99.90;;;;;;4950513;29;20046;-80
2022/01/07 09:13:10;;;;;;;11.77;6.55;;;4.30;99.90;;;;;;4950331;29;20136;-82
2022/01/07 09:15:36;;;;;;;12.52;7.88;;;4.40;99.90;;;;;;4953859;29;20051;-80
2022/01/07 09:18:10;;;;;;;11.00;7.50;;;4.30;99.90;;;;;;4947885;29;20040;-80
2022/01/07 09:20:45;;;;;;;10.40;7.00;;;4.40;99.90;;;;;;4926022;29;20093;-78
2022/01/07 09:23:12;;;;;;;10.68;6.13;;;4.40;99.90;;;;;;4948707;29;20130;-77
2022/01/07 09:25:39;;;;;;;10.10;6.88;;;4.40;99.90;;;;;;4951188;29;20035;-79
2022/01/07 09:28:06;;;;;;;12.55;7.20;;;4.40;99.90;;;;;;4949052;29;20534;-80
2022/01/07 09:30:32;;;;;;;11.75;7.28;;;4.50;99.90;;;;;;4952724;29;20023;-79
2022/01/07 09:33:08;;;;;;;7.00;5.65;;;4.50;99.90;;;;;;5156687;27;20214;-80
2022/01/07 09:35:34;;;;;;;8.25;5.32;;;4.50;99.90;;;;;;5122798;27;20394;-84
2022/01/07 09:37:59;;;;;;;9.88;5.88;;;4.50;99.90;;;;;;5141650;27;20038;-85
2022/01/07 09:40:25;;;;;;;12.73;7.38;;;4.50;99.90;;;;;;5122333;27;20015;-78
2022/01/07 09:42:59;;;;;;;10.02;6.10;;;4.50;99.90;;;;;;5155302;27;20023;-81
2022/01/07 09:45:26;;;;;;;10.48;5.88;;;4.50;99.90;;;;;;5151812;27;20029;-78
2022/01/07 09:47:53;;;;;;;8.20;4.97;;;4.50;99.90;;;;;;5138100;27;20031;-81
2022/01/07 09:50:20;;;;;;;6.70;4.43;;;4.40;99.90;;;;;;5138584;27;20023;-78
2022/01/07 09:52:46;;;;;;;9.60;5.35;;;4.50;99.90;;;;;;5152236;27;20046;-83
2022/01/07 09:55:12;;;;;;;11.18;6.80;;;4.50;99.90;;;;;;5154082;27;20037;-80
2022/01/07 09:57:37;;;;;;;9.75;6.20;;;4.50;99.90;;;;;;5124211;22;20116;-82
2022/01/07 10:00:05;;;;;;;13.60;6.63;;;4.50;99.90;;;;;;5062483;28;20031;-78
2022/01/07 10:02:37;;;;;;;15.98;6.82;;;4.60;99.90;;;;;;5063589;28;20033;-78
2022/01/07 10:05:15;;;;;;;15.13;7.68;;;4.60;99.90;;;;;;5062969;28;20151;-82
2022/01/07 10:07:42;;;;;;;12.00;6.70;;;4.80;99.90;;;;;;5080942;28;20040;-81
2022/01/07 10:10:16;;;;;;;11.07;7.38;;;4.90;99.90;;;;;;5078472;28;20477;-80
2022/01/07 10:13:06;;;;;;;16.63;6.82;;;5.10;99.90;;;;;;5078116;28;20056;-81
2022/01/07 10:15:36;;;;;;;12.48;7.13;;;5.20;99.90;;;;;;5081361;28;20136;-82
2022/01/07 10:18:10;;;;;;;12.98;6.13;;;5.30;99.90;;;;;;5046236;28;20556;-81
2022/01/07 10:20:45;;;;;;;10.05;5.85;;;5.40;99.90;;;;;;5080901;28;20025;-77
2022/01/07 10:23:14;;;;;;;10.25;6.35;;;5.30;99.90;;;;;;5046396;28;20059;-81
2022/01/07 10:25:43;;;;;;;10.03;5.20;;;5.30;99.90;;;;;;5043531;28;20029;-81
2022/01/07 10:28:15;;;;;;;8.63;4.97;;;5.30;99.90;;;;;;5080784;28;20036;-81
2022/01/07 10:30:44;;;;;;;9.75;6.15;;;5.30;99.90;;;;;;5062906;28;20029;-79
2022/01/07 10:33:18;;;;;;;12.35;7.05;;;5.30;99.90;;;;;;5045874;28;20032;-81
2022/01/07 10:35:51;;;;;;;15.43;7.03;;;5.30;99.90;;;;;;5080393;28;20493;-81
2022/01/07 10:38:21;;;;;;;12.95;7.70;;;5.30;99.90;;;;;;5080652;28;20090;-83
2022/01/07 10:40:49;;;;;;;10.77;7.30;;;5.50;99.90;;;;;;5080477;28;20055;-78
2022/01/07 10:43:14;;;;;;;10.70;7.18;;;5.60;99.90;;;;;;5073650;28;20025;-82
2022/01/07 10:45:46;;;;;;;10.82;6.72;;;5.50;99.90;;;;;;5067020;28;20050;-78
2022/01/07 10:48:13;;;;;;;12.18;6.93;;;5.50;99.90;;;;;;5066870;28;20104;-81
2022/01/07 10:50:49;;;;;;;14.13;6.50;;;5.60;99.90;;;;;;5048658;28;20087;-76
2022/01/07 10:53:22;;;;;;;9.15;5.50;;;5.60;99.90;;;;;;5084352;28;20516;-77
2022/01/07 10:56:12;;;;;;;10.93;6.82;;;5.60;99.90;;;;;;5084597;28;20041;-79
2022/01/07 10:58:46;;;;;;;12.70;6.70;;;5.60;99.90;;;;;;5024034;28;20100;-80
2022/01/07 11:01:21;;;;;;;9.27;6.15;;;5.60;99.90;;;;;;5025153;28;20037;-80
2022/01/07 11:03:53;;;;;;;12.63;6.28;;;5.50;99.90;;;;;;5024855;28;20034;-82
2022/01/07 11:06:20;;;;;;;11.70;6.80;;;5.60;99.90;;;;;;5025601;28;20069;-77
2022/01/07 11:08:50;;;;;;;13.90;6.00;;;5.50;99.90;;;;;;5024785;28;20034;-79
2022/01/07 11:11:17;;;;;;;8.40;5.25;;;5.50;99.90;;;;;;5024650;28;20076;-78
2022/01/07 11:13:42;;;;;;;9.80;5.97;;;5.50;99.90;;;;;;5024400;28;20057;-80
2022/01/07 11:16:08;;;;;;;10.32;5.28;;;5.50;99.90;;;;;;5024389;28;20046;-77
2022/01/07 11:18:38;;;;;;;8.40;4.95;;;5.60;99.90;;;;;;5024062;28;20086;-79
2022/01/07 11:21:06;;;;;;;10.77;5.15;;;5.60;99.90;;;;;;5021764;28;20041;-80
2022/01/07 11:23:32;;;;;;;9.07;5.97;;;5.60;99.90;;;;;;5004823;28;20038;-78
2022/01/07 11:26:02;;;;;;;8.57;5.63;;;5.60;99.90;;;;;;5004546;28;20076;-84
2022/01/07 11:28:29;;;;;;;6.65;4.53;;;5.60;99.90;;;;;;5003660;28;20483;-80
2022/01/07 11:31:15;;;;;;;9.48;4.00;;;5.70;99.90;;;;;;5004568;28;20061;-76
2022/01/07 11:33:41;;;;;;;10.15;4.45;;;5.80;99.90;;;;;;5004353;28;20034;-76
2022/01/07 11:36:32;;;;;;;8.20;3.95;;;5.80;99.90;;;;;;5046872;28;20477;-81
2022/01/07 11:39:04;;;;;;;8.25;5.05;;;5.90;99.90;;;;;;5065943;28;20802;-79
2022/01/07 11:41:47;;;;;;;11.63;5.40;;;6.00;99.90;;;;;;5065957;28;20043;-79
2022/01/07 11:44:23;;;;;;;8.75;4.30;;;6.00;99.90;;;;;;5066080;28;20032;-81
2022/01/07 11:46:49;;;;;;;8.55;4.70;;;5.90;99.90;;;;;;5031285;28;20029;-78
2022/01/07 11:49:31;;;;;;;9.85;4.97;;;5.90;99.90;;;;;;5066026;28;20029;-81
2022/01/07 11:51:56;;;;;;;8.77;4.47;;;5.90;99.90;;;;;;5065748;28;20044;-82
2022/01/07 11:54:22;;;;;;;8.13;4.00;;;5.90;99.90;;;;;;5062099;28;20025;-79
2022/01/07 11:56:49;;;;;;;10.90;3.70;;;5.90;99.90;;;;;;5065071;28;20523;-79
2022/01/07 11:59:20;;;;;;;8.10;3.08;;;6.00;99.90;;;;;;5065834;28;20036;-78
2022/01/07 12:02:03;;;;;;;10.68;4.32;;;6.00;99.90;;;;;;5065541;28;20031;-83
2022/01/07 12:04:30;;;;;;;7.03;3.50;;;6.00;99.90;;;;;;5065501;28;20089;-80
2022/01/07 12:06:59;;;;;;;9.32;3.70;;;6.00;99.90;;;;;;5065189;28;20025;-79
2022/01/07 12:09:30;;;;;;;6.50;3.58;;;6.20;99.90;;;;;;5065249;28;20036;-80
2022/01/07 12:11:58;;;;;;;6.93;3.38;;;6.10;99.90;;;;;;5065356;28;20051;-78
2022/01/07 12:14:32;;;;;;;8.48;3.45;;;6.10;99.90;;;;;;5062694;28;20485;-82
2022/01/07 12:17:00;;;;;;;3.55;1.92;;;6.10;99.90;;;;;;5065173;28;20279;-80
2022/01/07 12:19:28;;;;;;;6.18;2.85;;;6.10;99.90;;;;;;5065668;28;20040;-80
2022/01/07 12:21:56;;;;;;;8.63;3.13;;;6.20;99.90;;;;;;5030057;28;20164;-76
2022/01/07 12:24:24;;;;;;;5.88;2.42;;;6.10;99.90;;;;;;5039641;28;20021;-77
2022/01/07 12:27:28;;;;;;;7.65;3.20;;;6.10;99.90;;;;;;5038185;28;20103;-78
2022/01/07 12:29:57;;;;;;;8.30;3.17;;;6.10;99.90;;;;;;4973308;28;20076;-80
2022/01/07 12:32:37;;;;;;;5.70;1.92;;;6.20;99.90;;;;;;4962815;28;20472;-78
2022/01/07 12:35:05;;;;;;;8.07;1.75;;;6.10;99.90;;;;;;4968772;28;20039;-81
2022/01/07 12:37:31;;;;;;;9.93;2.65;;;6.10;99.90;;;;;;4971621;28;20039;-77
2022/01/07 12:39:58;;;;;;;5.95;2.63;;;6.10;99.90;;;;;;4953466;28;20039;-80
2022/01/07 12:42:26;;;;;;;5.45;1.63;;;6.10;99.90;;;;;;4976931;28;20039;-78
2022/01/07 12:44:57;;;;;;;7.43;2.53;;;6.10;99.90;;;;;;4979645;28;20121;-78
2022/01/07 12:47:25;;;;;;;6.07;2.17;;;6.00;99.90;;;;;;4978333;28;20181;-82
2022/01/07 12:49:55;;;;;;;7.45;2.58;;;6.00;99.90;;;;;;4978045;28;20042;-83
2022/01/07 12:52:26;;;;;;;9.60;2.33;;;6.10;99.90;;;;;;4977517;28;20062;-77
2022/01/07 12:55:02;;;;;;;7.40;1.92;;;6.30;99.90;;;;;;4978860;28;20053;-80
2022/01/07 12:57:36;;;;;;;6.95;2.70;;;6.30;99.90;;;;;;4977318;28;20043;-78
2022/01/07 13:00:09;;;;;;;8.55;2.95;;;6.30;99.90;;;;;;4989341;28;20038;-77
2022/01/07 13:02:36;;;;;;;6.05;2.00;;;6.20;99.90;;;;;;5037646;28;20026;-76
2022/01/07 13:05:13;;;;;;;14.27;1.92;;;6.20;99.90;;;;;;5038415;28;20036;-85
2022/01/07 13:07:41;;;;;;;8.73;2.50;;;6.20;99.90;;;;;;5034177;28;20033;-77
2022/01/07 13:10:07;;;;;;;6.55;1.95;;;6.10;99.90;;;;;;5036880;28;20040;-77